sensor_id;sensor_type;location;lat;lon;timestamp;P1;durP1;ratioP1;P2;durP2;ratioP2
57575;SDS011;43412;-33.800;150.804;2022-08-20T00:00:29;0.73;;;0.30;;
57575;SDS011;43412;-33.800;150.804;2022-08-20T00:03:01;1.52;;;0.60;;
57575;SDS011;43412;-33.800;150.804;2022-08-20T00:05:36;2.38;;;0.35;;
57575;SDS011;43412;-33.800;150.804;2022-08-20T00:08:06;2.80;;;0.50;;
57575;SDS011;43412;-33.800;150.804;2022-08-20T00:10:35;1.65;;;0.30;;
57575;SDS011;43412;-33.800;150.804;2022-08-20T00:13:05;1.77;;;0.60;;
57575;SDS011;43412;-33.800;150.804;2022-08-20T00:15:36;2.58;;;0.75;;
57575;SDS011;43412;-33.800;150.804;2022-08-20T00:18:04;1.98;;;0.45;;
57575;SDS011;43412;-33.800;150.804;2022-08-20T00:20:34;3.00;;;0.63;;
57575;SDS011;43412;-33.800;150.804;2022-08-20T00:23:05;2.67;;;0.68;;
57575;SDS011;43412;-33.800;150.804;2022-08-20T00:25:33;0.77;;;0.45;;
57575;SDS011;43412;-33.800;150.804;2022-08-20T00:28:01;2.47;;;0.65;;
57575;SDS011;43412;-33.800;150.804;2022-08-20T00:30:29;2.60;;;0.55;;
57575;SDS011;43412;-33.800;150.804;2022-08-20T00:32:58;2.70;;;1.20;;
57575;SDS011;43412;-33.800;150.804;2022-08-20T00:35:28;3.67;;;0.40;;
57575;SDS011;43412;-33.800;150.804;2022-08-20T00:37:59;1.65;;;0.43;;
57575;SDS011;43412;-33.800;150.804;2022-08-20T00:40:29;1.45;;;0.40;;
57575;SDS011;43412;-33.800;150.804;2022-08-20T00:43:00;1.15;;;0.50;;
57575;SDS011;43412;-33.800;150.804;2022-08-20T00:45:31;2.42;;;0.40;;
57575;SDS011;43412;-33.800;150.804;2022-08-20T00:48:00;2.70;;;1.00;;
57575;SDS011;43412;-33.800;150.804;2022-08-20T00:50:30;2.38;;;0.50;;
57575;SDS011;43412;-33.800;150.804;2022-08-20T00:53:00;2.08;;;0.60;;
57575;SDS011;43412;-33.800;150.804;2022-08-20T00:55:30;3.55;;;0.40;;
57575;SDS011;43412;-33.800;150.804;2022-08-20T00:58:00;4.30;;;0.40;;
57575;SDS011;43412;-33.800;150.804;2022-08-20T01:00:35;1.15;;;0.52;;
57575;SDS011;43412;-33.800;150.804;2022-08-20T01:03:08;2.20;;;0.38;;
57575;SDS011;43412;-33.800;150.804;2022-08-20T01:05:38;3.33;;;0.52;;
57575;SDS011;43412;-33.800;150.804;2022-08-20T01:08:09;3.03;;;0.45;;
57575;SDS011;43412;-33.800;150.804;2022-08-20T01:10:38;1.42;;;0.47;;
57575;SDS011;43412;-33.800;150.804;2022-08-20T01:13:11;2.70;;;0.38;;
57575;SDS011;43412;-33.800;150.804;2022-08-20T01:15:42;1.42;;;0.40;;
57575;SDS011;43412;-33.800;150.804;2022-08-20T01:18:12;1.02;;;0.30;;
57575;SDS011;43412;-33.800;150.804;2022-08-20T01:20:44;2.20;;;0.32;;
57575;SDS011;43412;-33.800;150.804;2022-08-20T01:23:27;2.42;;;0.40;;
57575;SDS011;43412;-33.800;150.804;2022-08-20T01:26:09;1.60;;;0.30;;
57575;SDS011;43412;-33.800;150.804;2022-08-20T01:28:47;2.38;;;0.43;;
57575;SDS011;43412;-33.800;150.804;2022-08-20T01:31:25;3.05;;;0.40;;
57575;SDS011;43412;-33.800;150.804;2022-08-20T01:33:59;1.30;;;0.50;;
57575;SDS011;43412;-33.800;150.804;2022-08-20T01:36:34;1.55;;;0.70;;
57575;SDS011;43412;-33.800;150.804;2022-08-20T01:39:05;2.03;;;0.45;;
57575;SDS011;43412;-33.800;150.804;2022-08-20T01:44:08;1.65;;;0.60;;
57575;SDS011;43412;-33.800;150.804;2022-08-20T01:46:38;1.80;;;0.70;;
57575;SDS011;43412;-33.800;150.804;2022-08-20T01:49:17;3.88;;;0.75;;
57575;SDS011;43412;-33.800;150.804;2022-08-20T01:51:48;3.08;;;0.70;;
57575;SDS011;43412;-33.800;150.804;2022-08-20T01:54:17;2.72;;;0.70;;
57575;SDS011;43412;-33.800;150.804;2022-08-20T01:59:39;2.60;;;1.05;;
57575;SDS011;43412;-33.800;150.804;2022-08-20T02:02:07;3.53;;;0.60;;
57575;SDS011;43412;-33.800;150.804;2022-08-20T02:04:35;2.35;;;0.60;;
57575;SDS011;43412;-33.800;150.804;2022-08-20T02:07:06;2.63;;;0.52;;
57575;SDS011;43412;-33.800;150.804;2022-08-20T02:09:38;6.00;;;0.40;;
57575;SDS011;43412;-33.800;150.804;2022-08-20T02:12:07;1.85;;;0.50;;
57575;SDS011;43412;-33.800;150.804;2022-08-20T02:14:38;1.38;;;0.47;;
57575;SDS011;43412;-33.800;150.804;2022-08-20T02:17:10;2.70;;;0.75;;
57575;SDS011;43412;-33.800;150.804;2022-08-20T02:19:41;0.98;;;0.60;;
57575;SDS011;43412;-33.800;150.804;2022-08-20T02:22:20;2.67;;;0.70;;
57575;SDS011;43412;-33.800;150.804;2022-08-20T02:24:54;2.50;;;1.25;;
57575;SDS011;43412;-33.800;150.804;2022-08-20T02:27:21;1.90;;;0.52;;
57575;SDS011;43412;-33.800;150.804;2022-08-20T02:29:49;2.33;;;0.38;;
57575;SDS011;43412;-33.800;150.804;2022-08-20T02:32:18;2.33;;;0.63;;
57575;SDS011;43412;-33.800;150.804;2022-08-20T02:34:46;1.60;;;0.82;;
57575;SDS011;43412;-33.800;150.804;2022-08-20T02:37:14;4.55;;;0.55;;
57575;SDS011;43412;-33.800;150.804;2022-08-20T02:39:43;1.45;;;0.73;;
57575;SDS011;43412;-33.800;150.804;2022-08-20T02:42:11;3.30;;;0.57;;
57575;SDS011;43412;-33.800;150.804;2022-08-20T02:44:39;1.95;;;0.40;;
57575;SDS011;43412;-33.800;150.804;2022-08-20T02:47:07;2.72;;;0.35;;
57575;SDS011;43412;-33.800;150.804;2022-08-20T02:49:34;1.60;;;0.10;;
57575;SDS011;43412;-33.800;150.804;2022-08-20T02:52:02;1.08;;;0.40;;
57575;SDS011;43412;-33.800;150.804;2022-08-20T02:54:29;0.75;;;0.30;;
57575;SDS011;43412;-33.800;150.804;2022-08-20T02:56:57;1.52;;;0.40;;
57575;SDS011;43412;-33.800;150.804;2022-08-20T02:59:24;0.60;;;0.47;;
57575;SDS011;43412;-33.800;150.804;2022-08-20T03:01:51;1.98;;;0.50;;
57575;SDS011;43412;-33.800;150.804;2022-08-20T03:04:19;0.43;;;0.20;;
57575;SDS011;43412;-33.800;150.804;2022-08-20T03:06:46;2.78;;;0.70;;
57575;SDS011;43412;-33.800;150.804;2022-08-20T03:09:14;2.30;;;0.40;;
57575;SDS011;43412;-33.800;150.804;2022-08-20T03:11:41;3.13;;;0.32;;
57575;SDS011;43412;-33.800;150.804;2022-08-20T03:14:09;0.95;;;0.75;;
57575;SDS011;43412;-33.800;150.804;2022-08-20T03:16:37;2.88;;;0.52;;
57575;SDS011;43412;-33.800;150.804;2022-08-20T03:19:04;3.67;;;0.95;;
57575;SDS011;43412;-33.800;150.804;2022-08-20T03:21:33;1.88;;;0.85;;
57575;SDS011;43412;-33.800;150.804;2022-08-20T03:24:00;2.08;;;0.70;;
57575;SDS011;43412;-33.800;150.804;2022-08-20T03:26:27;2.65;;;1.08;;
57575;SDS011;43412;-33.800;150.804;2022-08-20T03:28:55;4.70;;;0.93;;
57575;SDS011;43412;-33.800;150.804;2022-08-20T03:31:22;1.73;;;0.32;;
57575;SDS011;43412;-33.800;150.804;2022-08-20T03:33:50;1.92;;;0.65;;
57575;SDS011;43412;-33.800;150.804;2022-08-20T03:36:17;2.53;;;0.50;;
57575;SDS011;43412;-33.800;150.804;2022-08-20T03:38:45;5.03;;;0.43;;
57575;SDS011;43412;-33.800;150.804;2022-08-20T03:41:12;2.33;;;0.40;;
57575;SDS011;43412;-33.800;150.804;2022-08-20T03:43:39;1.58;;;0.25;;
57575;SDS011;43412;-33.800;150.804;2022-08-20T03:46:07;2.80;;;0.40;;
57575;SDS011;43412;-33.800;150.804;2022-08-20T03:48:34;3.15;;;0.45;;
57575;SDS011;43412;-33.800;150.804;2022-08-20T03:51:03;1.55;;;0.38;;
57575;SDS011;43412;-33.800;150.804;2022-08-20T03:53:31;3.13;;;0.52;;
57575;SDS011;43412;-33.800;150.804;2022-08-20T03:55:59;1.65;;;0.35;;
57575;SDS011;43412;-33.800;150.804;2022-08-20T03:58:30;2.13;;;0.60;;
57575;SDS011;43412;-33.800;150.804;2022-08-20T04:00:58;2.47;;;0.40;;
57575;SDS011;43412;-33.800;150.804;2022-08-20T04:03:26;3.45;;;0.45;;
57575;SDS011;43412;-33.800;150.804;2022-08-20T04:05:54;3.20;;;0.55;;
57575;SDS011;43412;-33.800;150.804;2022-08-20T04:08:23;1.30;;;0.50;;
57575;SDS011;43412;-33.800;150.804;2022-08-20T04:10:54;1.88;;;0.40;;
57575;SDS011;43412;-33.800;150.804;2022-08-20T04:13:25;2.08;;;0.40;;
57575;SDS011;43412;-33.800;150.804;2022-08-20T04:15:54;2.55;;;0.50;;
57575;SDS011;43412;-33.800;150.804;2022-08-20T04:18:22;1.33;;;0.50;;
57575;SDS011;43412;-33.800;150.804;2022-08-20T04:20:51;1.77;;;0.50;;
57575;SDS011;43412;-33.800;150.804;2022-08-20T04:23:20;1.65;;;0.50;;
57575;SDS011;43412;-33.800;150.804;2022-08-20T04:25:48;2.58;;;0.82;;
57575;SDS011;43412;-33.800;150.804;2022-08-20T04:28:19;2.63;;;0.43;;
57575;SDS011;43412;-33.800;150.804;2022-08-20T04:30:55;1.45;;;0.50;;
57575;SDS011;43412;-33.800;150.804;2022-08-20T04:33:25;2.65;;;0.30;;
57575;SDS011;43412;-33.800;150.804;2022-08-20T04:35:55;1.70;;;0.47;;
57575;SDS011;43412;-33.800;150.804;2022-08-20T04:38:28;3.17;;;0.68;;
57575;SDS011;43412;-33.800;150.804;2022-08-20T04:40:55;2.75;;;0.60;;
57575;SDS011;43412;-33.800;150.804;2022-08-20T04:43:27;1.30;;;0.30;;
57575;SDS011;43412;-33.800;150.804;2022-08-20T04:45:58;1.00;;;0.50;;
57575;SDS011;43412;-33.800;150.804;2022-08-20T04:48:34;3.30;;;0.38;;
57575;SDS011;43412;-33.800;150.804;2022-08-20T04:51:04;0.93;;;0.40;;
57575;SDS011;43412;-33.800;150.804;2022-08-20T04:53:32;1.45;;;0.38;;
57575;SDS011;43412;-33.800;150.804;2022-08-20T04:56:00;1.70;;;0.85;;
57575;SDS011;43412;-33.800;150.804;2022-08-20T04:58:29;0.85;;;0.30;;
57575;SDS011;43412;-33.800;150.804;2022-08-20T05:01:00;1.85;;;0.90;;
57575;SDS011;43412;-33.800;150.804;2022-08-20T05:03:30;1.77;;;0.28;;
57575;SDS011;43412;-33.800;150.804;2022-08-20T05:05:58;2.80;;;0.50;;
57575;SDS011;43412;-33.800;150.804;2022-08-20T05:08:26;2.53;;;0.52;;
57575;SDS011;43412;-33.800;150.804;2022-08-20T05:10:54;5.47;;;0.60;;
57575;SDS011;43412;-33.800;150.804;2022-08-20T05:13:23;2.13;;;0.70;;
57575;SDS011;43412;-33.800;150.804;2022-08-20T05:15:52;5.07;;;0.40;;
57575;SDS011;43412;-33.800;150.804;2022-08-20T05:18:21;6.43;;;1.80;;
57575;SDS011;43412;-33.800;150.804;2022-08-20T05:20:51;1.17;;;0.60;;
57575;SDS011;43412;-33.800;150.804;2022-08-20T05:23:19;2.90;;;0.80;;
57575;SDS011;43412;-33.800;150.804;2022-08-20T05:25:48;2.38;;;0.60;;
57575;SDS011;43412;-33.800;150.804;2022-08-20T05:28:21;1.38;;;0.30;;
57575;SDS011;43412;-33.800;150.804;2022-08-20T05:30:51;5.82;;;1.20;;
57575;SDS011;43412;-33.800;150.804;2022-08-20T05:33:19;1.50;;;0.52;;
57575;SDS011;43412;-33.800;150.804;2022-08-20T05:35:48;3.50;;;0.95;;
57575;SDS011;43412;-33.800;150.804;2022-08-20T05:38:19;1.27;;;0.30;;
57575;SDS011;43412;-33.800;150.804;2022-08-20T05:40:50;1.55;;;0.45;;
57575;SDS011;43412;-33.800;150.804;2022-08-20T05:43:18;1.83;;;0.40;;
57575;SDS011;43412;-33.800;150.804;2022-08-20T05:45:47;1.20;;;0.40;;
57575;SDS011;43412;-33.800;150.804;2022-08-20T05:48:18;2.50;;;0.75;;
57575;SDS011;43412;-33.800;150.804;2022-08-20T05:50:47;3.00;;;1.05;;
57575;SDS011;43412;-33.800;150.804;2022-08-20T05:53:17;3.40;;;1.50;;
57575;SDS011;43412;-33.800;150.804;2022-08-20T05:55:46;1.58;;;0.32;;
57575;SDS011;43412;-33.800;150.804;2022-08-20T05:58:16;4.05;;;0.45;;
57575;SDS011;43412;-33.800;150.804;2022-08-20T06:00:48;1.10;;;0.55;;
57575;SDS011;43412;-33.800;150.804;2022-08-20T06:03:17;1.98;;;0.47;;
57575;SDS011;43412;-33.800;150.804;2022-08-20T06:06:02;2.78;;;0.60;;
57575;SDS011;43412;-33.800;150.804;2022-08-20T06:08:30;1.83;;;0.70;;
57575;SDS011;43412;-33.800;150.804;2022-08-20T06:10:58;1.92;;;0.60;;
57575;SDS011;43412;-33.800;150.804;2022-08-20T06:13:25;1.63;;;0.88;;
57575;SDS011;43412;-33.800;150.804;2022-08-20T06:15:54;2.42;;;0.93;;
57575;SDS011;43412;-33.800;150.804;2022-08-20T06:18:22;0.65;;;0.10;;
57575;SDS011;43412;-33.800;150.804;2022-08-20T06:20:50;4.75;;;0.65;;
57575;SDS011;43412;-33.800;150.804;2022-08-20T06:23:18;0.63;;;0.10;;
57575;SDS011;43412;-33.800;150.804;2022-08-20T06:25:45;0.57;;;0.10;;
57575;SDS011;43412;-33.800;150.804;2022-08-20T06:28:15;0.43;;;0.00;;
57575;SDS011;43412;-33.800;150.804;2022-08-20T06:30:43;0.43;;;0.30;;
57575;SDS011;43412;-33.800;150.804;2022-08-20T06:33:10;0.13;;;0.08;;
57575;SDS011;43412;-33.800;150.804;2022-08-20T06:35:38;1.38;;;0.10;;
57575;SDS011;43412;-33.800;150.804;2022-08-20T06:38:05;0.30;;;0.05;;
57575;SDS011;43412;-33.800;150.804;2022-08-20T06:40:37;0.68;;;0.25;;
57575;SDS011;43412;-33.800;150.804;2022-08-20T06:43:04;0.30;;;0.20;;
57575;SDS011;43412;-33.800;150.804;2022-08-20T06:45:33;0.20;;;0.10;;
57575;SDS011;43412;-33.800;150.804;2022-08-20T06:48:04;0.93;;;0.22;;
57575;SDS011;43412;-33.800;150.804;2022-08-20T06:50:35;0.40;;;0.20;;
57575;SDS011;43412;-33.800;150.804;2022-08-20T06:53:06;0.90;;;0.20;;
57575;SDS011;43412;-33.800;150.804;2022-08-20T06:55:35;0.40;;;0.30;;
57575;SDS011;43412;-33.800;150.804;2022-08-20T06:58:06;0.25;;;0.10;;
57575;SDS011;43412;-33.800;150.804;2022-08-20T07:00:35;0.20;;;0.10;;
57575;SDS011;43412;-33.800;150.804;2022-08-20T07:03:05;0.50;;;0.10;;
57575;SDS011;43412;-33.800;150.804;2022-08-20T07:05:34;1.35;;;0.45;;
57575;SDS011;43412;-33.800;150.804;2022-08-20T07:08:05;0.47;;;0.45;;
57575;SDS011;43412;-33.800;150.804;2022-08-20T07:10:34;0.30;;;0.20;;
57575;SDS011;43412;-33.800;150.804;2022-08-20T07:13:02;0.40;;;0.30;;
57575;SDS011;43412;-33.800;150.804;2022-08-20T07:15:31;0.35;;;0.30;;
57575;SDS011;43412;-33.800;150.804;2022-08-20T07:17:59;1.20;;;0.10;;
57575;SDS011;43412;-33.800;150.804;2022-08-20T07:20:29;0.03;;;0.03;;
57575;SDS011;43412;-33.800;150.804;2022-08-20T07:22:58;0.88;;;0.10;;
57575;SDS011;43412;-33.800;150.804;2022-08-20T07:25:26;0.43;;;0.17;;
57575;SDS011;43412;-33.800;150.804;2022-08-20T07:27:58;0.28;;;0.20;;
57575;SDS011;43412;-33.800;150.804;2022-08-20T07:30:27;0.20;;;0.13;;
57575;SDS011;43412;-33.800;150.804;2022-08-20T07:33:13;0.68;;;0.30;;
57575;SDS011;43412;-33.800;150.804;2022-08-20T07:35:41;1.08;;;0.40;;
57575;SDS011;43412;-33.800;150.804;2022-08-20T07:38:16;0.60;;;0.40;;
57575;SDS011;43412;-33.800;150.804;2022-08-20T07:40:55;0.77;;;0.47;;
57575;SDS011;43412;-33.800;150.804;2022-08-20T07:43:31;1.40;;;0.40;;
57575;SDS011;43412;-33.800;150.804;2022-08-20T07:46:00;2.45;;;0.30;;
57575;SDS011;43412;-33.800;150.804;2022-08-20T07:48:34;0.60;;;0.30;;
57575;SDS011;43412;-33.800;150.804;2022-08-20T07:51:09;2.15;;;0.25;;
57575;SDS011;43412;-33.800;150.804;2022-08-20T07:53:37;0.40;;;0.25;;
57575;SDS011;43412;-33.800;150.804;2022-08-20T07:56:10;0.45;;;0.20;;
57575;SDS011;43412;-33.800;150.804;2022-08-20T07:58:41;0.43;;;0.28;;
57575;SDS011;43412;-33.800;150.804;2022-08-20T08:01:15;0.57;;;0.20;;
57575;SDS011;43412;-33.800;150.804;2022-08-20T08:03:44;0.52;;;0.10;;
57575;SDS011;43412;-33.800;150.804;2022-08-20T08:06:12;0.30;;;0.20;;
57575;SDS011;43412;-33.800;150.804;2022-08-20T08:08:39;0.20;;;0.20;;
57575;SDS011;43412;-33.800;150.804;2022-08-20T08:11:08;0.60;;;0.28;;
57575;SDS011;43412;-33.800;150.804;2022-08-20T08:13:37;0.77;;;0.30;;
57575;SDS011;43412;-33.800;150.804;2022-08-20T08:16:07;0.30;;;0.20;;
57575;SDS011;43412;-33.800;150.804;2022-08-20T08:18:53;0.98;;;0.30;;
57575;SDS011;43412;-33.800;150.804;2022-08-20T08:21:25;0.35;;;0.10;;
57575;SDS011;43412;-33.800;150.804;2022-08-20T08:23:54;0.30;;;0.10;;
57575;SDS011;43412;-33.800;150.804;2022-08-20T08:26:22;0.88;;;0.40;;
57575;SDS011;43412;-33.800;150.804;2022-08-20T08:28:53;0.45;;;0.20;;
57575;SDS011;43412;-33.800;150.804;2022-08-20T08:31:20;1.60;;;0.40;;
57575;SDS011;43412;-33.800;150.804;2022-08-20T08:33:50;0.68;;;0.20;;
57575;SDS011;43412;-33.800;150.804;2022-08-20T08:36:17;0.43;;;0.20;;
57575;SDS011;43412;-33.800;150.804;2022-08-20T08:38:45;1.50;;;0.43;;
57575;SDS011;43412;-33.800;150.804;2022-08-20T08:44:00;0.20;;;0.13;;
57575;SDS011;43412;-33.800;150.804;2022-08-20T08:46:39;0.20;;;0.20;;
57575;SDS011;43412;-33.800;150.804;2022-08-20T08:49:12;0.68;;;0.25;;
57575;SDS011;43412;-33.800;150.804;2022-08-20T08:54:16;2.67;;;0.30;;
57575;SDS011;43412;-33.800;150.804;2022-08-20T08:56:46;3.03;;;0.32;;
57575;SDS011;43412;-33.800;150.804;2022-08-20T08:59:14;0.65;;;0.20;;
57575;SDS011;43412;-33.800;150.804;2022-08-20T09:01:42;0.10;;;0.10;;
57575;SDS011;43412;-33.800;150.804;2022-08-20T09:04:16;0.10;;;0.10;;
57575;SDS011;43412;-33.800;150.804;2022-08-20T09:06:49;0.80;;;0.30;;
57575;SDS011;43412;-33.800;150.804;2022-08-20T09:09:21;1.77;;;0.25;;
57575;SDS011;43412;-33.800;150.804;2022-08-20T09:11:56;1.15;;;0.40;;
57575;SDS011;43412;-33.800;150.804;2022-08-20T09:14:36;0.50;;;0.30;;
57575;SDS011;43412;-33.800;150.804;2022-08-20T09:17:04;1.08;;;0.40;;
57575;SDS011;43412;-33.800;150.804;2022-08-20T09:19:32;0.63;;;0.30;;
57575;SDS011;43412;-33.800;150.804;2022-08-20T09:22:05;0.80;;;0.40;;
57575;SDS011;43412;-33.800;150.804;2022-08-20T09:24:34;1.92;;;0.40;;
57575;SDS011;43412;-33.800;150.804;2022-08-20T09:27:02;1.88;;;0.50;;
57575;SDS011;43412;-33.800;150.804;2022-08-20T09:29:30;2.33;;;0.65;;
57575;SDS011;43412;-33.800;150.804;2022-08-20T09:32:08;1.63;;;0.55;;
57575;SDS011;43412;-33.800;150.804;2022-08-20T09:34:39;1.73;;;0.50;;
57575;SDS011;43412;-33.800;150.804;2022-08-20T09:37:13;0.52;;;0.40;;
57575;SDS011;43412;-33.800;150.804;2022-08-20T09:39:40;0.95;;;0.50;;
57575;SDS011;43412;-33.800;150.804;2022-08-20T09:42:30;1.25;;;0.60;;
57575;SDS011;43412;-33.800;150.804;2022-08-20T09:44:57;2.00;;;0.60;;
57575;SDS011;43412;-33.800;150.804;2022-08-20T09:47:26;0.82;;;0.55;;
57575;SDS011;43412;-33.800;150.804;2022-08-20T09:49:53;1.35;;;0.75;;
57575;SDS011;43412;-33.800;150.804;2022-08-20T09:54:51;2.10;;;1.00;;
57575;SDS011;43412;-33.800;150.804;2022-08-20T09:57:24;2.65;;;1.17;;
57575;SDS011;43412;-33.800;150.804;2022-08-20T09:59:54;2.40;;;1.38;;
57575;SDS011;43412;-33.800;150.804;2022-08-20T10:02:26;2.60;;;1.38;;
57575;SDS011;43412;-33.800;150.804;2022-08-20T10:04:54;3.38;;;1.15;;
57575;SDS011;43412;-33.800;150.804;2022-08-20T10:07:21;3.53;;;1.30;;
57575;SDS011;43412;-33.800;150.804;2022-08-20T10:09:49;2.30;;;1.48;;
57575;SDS011;43412;-33.800;150.804;2022-08-20T10:12:17;1.42;;;0.73;;
57575;SDS011;43412;-33.800;150.804;2022-08-20T10:14:44;1.85;;;0.95;;
57575;SDS011;43412;-33.800;150.804;2022-08-20T10:17:12;1.40;;;1.00;;
57575;SDS011;43412;-33.800;150.804;2022-08-20T10:19:39;1.85;;;0.98;;
57575;SDS011;43412;-33.800;150.804;2022-08-20T10:22:06;1.42;;;1.08;;
57575;SDS011;43412;-33.800;150.804;2022-08-20T10:24:34;1.92;;;1.30;;
57575;SDS011;43412;-33.800;150.804;2022-08-20T10:27:01;2.65;;;1.35;;
57575;SDS011;43412;-33.800;150.804;2022-08-20T10:29:29;3.25;;;1.40;;
57575;SDS011;43412;-33.800;150.804;2022-08-20T10:31:56;3.47;;;2.15;;
57575;SDS011;43412;-33.800;150.804;2022-08-20T10:34:37;4.15;;;2.65;;
57575;SDS011;43412;-33.800;150.804;2022-08-20T10:37:05;5.47;;;3.25;;
57575;SDS011;43412;-33.800;150.804;2022-08-20T10:39:33;5.43;;;3.33;;
57575;SDS011;43412;-33.800;150.804;2022-08-20T10:42:00;5.43;;;3.42;;
57575;SDS011;43412;-33.800;150.804;2022-08-20T10:44:27;3.53;;;2.20;;
57575;SDS011;43412;-33.800;150.804;2022-08-20T10:46:55;6.63;;;2.95;;
57575;SDS011;43412;-33.800;150.804;2022-08-20T10:49:22;4.82;;;3.03;;
57575;SDS011;43412;-33.800;150.804;2022-08-20T10:51:50;5.40;;;2.30;;
57575;SDS011;43412;-33.800;150.804;2022-08-20T10:54:17;4.13;;;2.60;;
57575;SDS011;43412;-33.800;150.804;2022-08-20T10:56:44;3.88;;;2.78;;
57575;SDS011;43412;-33.800;150.804;2022-08-20T10:59:12;5.47;;;3.13;;
57575;SDS011;43412;-33.800;150.804;2022-08-20T11:01:39;8.02;;;3.30;;
57575;SDS011;43412;-33.800;150.804;2022-08-20T11:04:07;4.00;;;3.15;;
57575;SDS011;43412;-33.800;150.804;2022-08-20T11:06:34;4.50;;;2.53;;
57575;SDS011;43412;-33.800;150.804;2022-08-20T11:09:01;3.78;;;3.28;;
57575;SDS011;43412;-33.800;150.804;2022-08-20T11:11:29;5.45;;;3.40;;
57575;SDS011;43412;-33.800;150.804;2022-08-20T11:13:56;3.47;;;3.08;;
57575;SDS011;43412;-33.800;150.804;2022-08-20T11:16:23;3.97;;;2.40;;
57575;SDS011;43412;-33.800;150.804;2022-08-20T11:18:51;1.73;;;1.63;;
57575;SDS011;43412;-33.800;150.804;2022-08-20T11:21:18;1.58;;;1.20;;
57575;SDS011;43412;-33.800;150.804;2022-08-20T11:23:46;2.60;;;1.60;;
57575;SDS011;43412;-33.800;150.804;2022-08-20T11:26:22;5.22;;;3.67;;
57575;SDS011;43412;-33.800;150.804;2022-08-20T11:28:50;4.45;;;2.60;;
57575;SDS011;43412;-33.800;150.804;2022-08-20T11:31:17;2.20;;;1.65;;
57575;SDS011;43412;-33.800;150.804;2022-08-20T11:33:45;2.38;;;1.48;;
57575;SDS011;43412;-33.800;150.804;2022-08-20T11:36:12;2.20;;;1.42;;
57575;SDS011;43412;-33.800;150.804;2022-08-20T11:38:40;2.83;;;2.38;;
57575;SDS011;43412;-33.800;150.804;2022-08-20T11:41:07;2.95;;;1.95;;
57575;SDS011;43412;-33.800;150.804;2022-08-20T11:43:34;5.80;;;2.35;;
57575;SDS011;43412;-33.800;150.804;2022-08-20T11:46:02;2.90;;;2.25;;
57575;SDS011;43412;-33.800;150.804;2022-08-20T11:48:29;4.03;;;2.17;;
57575;SDS011;43412;-33.800;150.804;2022-08-20T11:50:57;5.32;;;3.15;;
57575;SDS011;43412;-33.800;150.804;2022-08-20T11:53:24;4.63;;;1.75;;
57575;SDS011;43412;-33.800;150.804;2022-08-20T11:55:52;2.70;;;1.77;;
57575;SDS011;43412;-33.800;150.804;2022-08-20T11:58:19;5.75;;;3.20;;
57575;SDS011;43412;-33.800;150.804;2022-08-20T12:00:46;4.53;;;2.90;;
57575;SDS011;43412;-33.800;150.804;2022-08-20T12:03:14;5.47;;;3.28;;
57575;SDS011;43412;-33.800;150.804;2022-08-20T12:05:42;8.18;;;5.47;;
57575;SDS011;43412;-33.800;150.804;2022-08-20T12:08:12;11.45;;;6.07;;
57575;SDS011;43412;-33.800;150.804;2022-08-20T12:10:40;10.55;;;6.25;;
57575;SDS011;43412;-33.800;150.804;2022-08-20T12:13:07;5.93;;;3.50;;
57575;SDS011;43412;-33.800;150.804;2022-08-20T12:15:35;3.92;;;1.85;;
57575;SDS011;43412;-33.800;150.804;2022-08-20T12:18:06;1.90;;;1.15;;
57575;SDS011;43412;-33.800;150.804;2022-08-20T12:20:34;1.40;;;0.75;;
57575;SDS011;43412;-33.800;150.804;2022-08-20T12:23:02;0.60;;;0.30;;
57575;SDS011;43412;-33.800;150.804;2022-08-20T12:25:30;0.73;;;0.70;;
57575;SDS011;43412;-33.800;150.804;2022-08-20T12:27:58;1.17;;;0.75;;
57575;SDS011;43412;-33.800;150.804;2022-08-20T12:30:25;2.03;;;0.55;;
57575;SDS011;43412;-33.800;150.804;2022-08-20T12:32:52;3.10;;;2.20;;
57575;SDS011;43412;-33.800;150.804;2022-08-20T12:35:20;3.15;;;2.05;;
57575;SDS011;43412;-33.800;150.804;2022-08-20T12:37:47;6.88;;;3.22;;
57575;SDS011;43412;-33.800;150.804;2022-08-20T12:40:17;2.33;;;1.90;;
57575;SDS011;43412;-33.800;150.804;2022-08-20T12:42:47;3.40;;;2.30;;
57575;SDS011;43412;-33.800;150.804;2022-08-20T12:45:15;6.30;;;4.38;;
57575;SDS011;43412;-33.800;150.804;2022-08-20T12:47:44;6.90;;;2.95;;
57575;SDS011;43412;-33.800;150.804;2022-08-20T12:50:15;3.13;;;1.42;;
57575;SDS011;43412;-33.800;150.804;2022-08-20T12:52:45;2.80;;;1.50;;
57575;SDS011;43412;-33.800;150.804;2022-08-20T12:55:13;5.28;;;3.10;;
57575;SDS011;43412;-33.800;150.804;2022-08-20T12:57:44;7.07;;;3.75;;
57575;SDS011;43412;-33.800;150.804;2022-08-20T13:00:24;4.85;;;3.03;;
57575;SDS011;43412;-33.800;150.804;2022-08-20T13:03:03;6.28;;;3.95;;
57575;SDS011;43412;-33.800;150.804;2022-08-20T13:05:32;8.02;;;4.97;;
57575;SDS011;43412;-33.800;150.804;2022-08-20T13:08:00;6.72;;;3.72;;
57575;SDS011;43412;-33.800;150.804;2022-08-20T13:10:33;5.75;;;3.28;;
57575;SDS011;43412;-33.800;150.804;2022-08-20T13:13:02;4.70;;;2.90;;
57575;SDS011;43412;-33.800;150.804;2022-08-20T13:15:30;5.05;;;3.17;;
57575;SDS011;43412;-33.800;150.804;2022-08-20T13:17:59;7.63;;;4.70;;
57575;SDS011;43412;-33.800;150.804;2022-08-20T13:20:29;6.80;;;4.07;;
57575;SDS011;43412;-33.800;150.804;2022-08-20T13:22:56;3.28;;;1.88;;
57575;SDS011;43412;-33.800;150.804;2022-08-20T13:25:24;4.43;;;1.67;;
57575;SDS011;43412;-33.800;150.804;2022-08-20T13:27:56;2.00;;;1.00;;
57575;SDS011;43412;-33.800;150.804;2022-08-20T13:30:25;1.42;;;1.13;;
57575;SDS011;43412;-33.800;150.804;2022-08-20T13:32:53;4.63;;;2.55;;
57575;SDS011;43412;-33.800;150.804;2022-08-20T13:35:20;3.10;;;1.95;;
57575;SDS011;43412;-33.800;150.804;2022-08-20T13:37:48;3.58;;;2.65;;
57575;SDS011;43412;-33.800;150.804;2022-08-20T13:40:16;8.45;;;5.90;;
57575;SDS011;43412;-33.800;150.804;2022-08-20T13:42:44;5.68;;;3.42;;
57575;SDS011;43412;-33.800;150.804;2022-08-20T13:45:12;3.53;;;1.52;;
57575;SDS011;43412;-33.800;150.804;2022-08-20T13:47:40;5.60;;;3.47;;
57575;SDS011;43412;-33.800;150.804;2022-08-20T13:50:10;7.50;;;4.95;;
57575;SDS011;43412;-33.800;150.804;2022-08-20T13:52:41;5.18;;;3.22;;
57575;SDS011;43412;-33.800;150.804;2022-08-20T13:55:09;2.00;;;1.52;;
57575;SDS011;43412;-33.800;150.804;2022-08-20T13:57:39;0.60;;;0.50;;
57575;SDS011;43412;-33.800;150.804;2022-08-20T14:00:08;0.32;;;0.30;;
57575;SDS011;43412;-33.800;150.804;2022-08-20T14:02:38;0.63;;;0.30;;
57575;SDS011;43412;-33.800;150.804;2022-08-20T14:05:07;0.50;;;0.50;;
57575;SDS011;43412;-33.800;150.804;2022-08-20T14:07:35;0.60;;;0.30;;
57575;SDS011;43412;-33.800;150.804;2022-08-20T14:10:05;1.27;;;0.75;;
57575;SDS011;43412;-33.800;150.804;2022-08-20T14:12:35;1.55;;;0.90;;
57575;SDS011;43412;-33.800;150.804;2022-08-20T14:15:03;1.13;;;0.75;;
57575;SDS011;43412;-33.800;150.804;2022-08-20T14:17:33;0.70;;;0.30;;
57575;SDS011;43412;-33.800;150.804;2022-08-20T14:20:06;0.28;;;0.20;;
57575;SDS011;43412;-33.800;150.804;2022-08-20T14:22:41;0.60;;;0.20;;
57575;SDS011;43412;-33.800;150.804;2022-08-20T14:25:09;0.77;;;0.30;;
57575;SDS011;43412;-33.800;150.804;2022-08-20T14:27:38;0.50;;;0.28;;
57575;SDS011;43412;-33.800;150.804;2022-08-20T14:30:08;0.40;;;0.30;;
57575;SDS011;43412;-33.800;150.804;2022-08-20T14:32:38;0.57;;;0.40;;
57575;SDS011;43412;-33.800;150.804;2022-08-20T14:35:06;1.92;;;0.30;;